Hlavní strana
METAR-TAF:

METAR-TAF

Letiště :

Krivoj Rog, Ukrajina

zeměpisná šířka: 48-03N, zeměpisná délka: 033-13-12E, výška: 124 m

Aktuální stav počasí

Zpráva byla vytvořena před 26 minutami, v 02:30 UTC
Severoseverozápadní vítr 6 kt
Teplota 0°C
Vlhkost vzduchu 47%
Tlak 1027 hPa
Viditelnost 10 km a více
Žádná oblačnost pod 1500 m, nevyskytují se cumulonimby.

METAR: UKDR 050230Z 34003MPS CAVOK M00/M10 Q1027 R36/09//70 NOSIG

Čas: 05:56 (02:56 UTC)

Předpověď počasí

Zpráva byla vytvořena před 3 hodinami a 55 minutami, v 23:01 UTC
Předpověď platná od 05 v 00 UTC do 05 v 24 UTC
Severní vítr 8 kt
Viditelnost 10 km a více
Žádná oblačnost pod 1500 m, nevyskytují se cumulonimby.
Dočasný
od 05 v 06 UTC do 05 v 18 UTC
Severní vítr 16 kt s nárazy do 25 kt

TAF: UKDR 042301Z 0500/0524 01004MPS CAVOK TX14/0512Z TN00/0503Z TEMPO 0506/0518 01008G13MPS

Stav a předpovědi počasí z více než 4 000 letišť (zprávy METAR a TAF).

Červené a žluté tečky na mapě představují dostupné meteorologické stanice.

Když kurzor umístíte na tečku, zobrazí se název stanice.

Pak kliknutím zobrazíte stav a předpověď počasí.

Chcete-li změnit mapu, kliknutím na zelené tlačítko se znaménkem +mapu přiblížíte, kliknutím na zelené tlačítko se znaménkem – mapu oddálíte a kliknutím na zelené šipky přejdete na sousední mapy.


METAR-TAF: